createdAt,value
2022-11-05T00:00:50.303Z,56.33
2022-11-05T00:02:07.335Z,69.43
2022-11-05T00:03:24.560Z,59.63
2022-11-05T00:04:41.699Z,88.03
2022-11-05T00:06:00.575Z,45.70
2022-11-05T00:07:22.715Z,69.40
2022-11-05T00:08:39.784Z,42.35
2022-11-05T00:09:44.664Z,55.42
2022-11-05T00:10:46.999Z,42.97
2022-11-05T00:12:06.680Z,43.92
2022-11-05T00:13:25.519Z,44.42
2022-11-05T00:14:42.639Z,65.80
2022-11-05T00:15:59.888Z,42.13
2022-11-05T00:17:04.500Z,45.70
2022-11-05T00:18:06.491Z,70.30
2022-11-05T00:19:11.081Z,53.30
2022-11-05T00:20:13.760Z,70.85
2022-11-05T00:21:30.611Z,60.28
2022-11-05T00:22:47.649Z,63.17
2022-11-05T00:24:04.714Z,63.95
2022-11-05T00:25:22.184Z,55.50
2022-11-05T00:26:24.226Z,57.95
2022-11-05T00:27:31.445Z,56.75
2022-11-05T00:28:36.673Z,58.20
2022-11-05T00:29:38.657Z,66.32
2022-11-05T00:30:43.342Z,59.60
2022-11-05T00:31:45.404Z,58.88
2022-11-05T00:32:51.495Z,79.95
2022-11-05T00:33:53.492Z,49.58
2022-11-05T00:34:58.088Z,70.40
2022-11-05T00:36:04.767Z,60.17
2022-11-05T00:37:06.804Z,56.15
2022-11-05T00:38:11.541Z,70.35
2022-11-05T00:39:13.580Z,80.78
2022-11-05T00:40:18.270Z,57.70
2022-11-05T00:41:20.231Z,47.85
2022-11-05T00:42:37.296Z,68.65
2022-11-05T00:43:56.921Z,67.28
2022-11-05T00:45:05.012Z,97.72
2022-11-05T00:46:09.823Z,91.07
2022-11-05T00:47:26.799Z,59.58
2022-11-05T00:48:43.824Z,61.20
2022-11-05T00:49:45.822Z,62.78
2022-11-05T00:50:50.433Z,57.95
2022-11-05T00:52:12.531Z,54.50
2022-11-05T00:53:17.110Z,66.13
2022-11-05T00:54:19.269Z,62.08
2022-11-05T00:55:23.894Z,64.30
2022-11-05T00:56:28.512Z,64.05
2022-11-05T00:57:30.537Z,84.28
2022-11-05T00:58:35.142Z,76.55
2022-11-05T00:59:39.769Z,84.35
2022-11-05T01:00:46.408Z,74.68
2022-11-05T01:01:48.496Z,77.78
2022-11-05T01:02:53.354Z,86.05
2022-11-05T01:03:58.023Z,80.55
2022-11-05T01:05:00.043Z,83.20
2022-11-05T01:06:10.753Z,70.15
2022-11-05T01:07:12.825Z,58.67
2022-11-05T01:08:18.877Z,65.55
2022-11-05T01:09:20.876Z,64.80
2022-11-05T01:10:25.930Z,73.57
2022-11-05T01:11:37.340Z,79.82
2022-11-05T01:12:39.842Z,67.72
2022-11-05T01:13:44.503Z,70.68
2022-11-05T01:14:49.191Z,74.82
2022-11-05T01:15:54.174Z,74.38
2022-11-05T01:16:56.259Z,63.67
2022-11-05T01:18:00.905Z,56.58
2022-11-05T01:19:05.650Z,58.42
2022-11-05T01:20:11.248Z,54.65
2022-11-05T01:21:14.616Z,69.47
2022-11-05T01:22:19.219Z,74.97
2022-11-05T01:23:23.771Z,77.50
2022-11-05T01:24:25.872Z,72.20
2022-11-05T01:25:30.531Z,82.55
2022-11-05T01:26:32.524Z,73.65
2022-11-05T01:27:38.215Z,84.25
2022-11-05T01:28:40.390Z,77.65
2022-11-05T01:29:45.107Z,83.97
2022-11-05T01:30:58.399Z,78.60
2022-11-05T01:32:00.795Z,67.65
2022-11-05T01:33:06.104Z,68.38
2022-11-05T01:34:08.260Z,76.45
2022-11-05T01:35:16.975Z,64.10
2022-11-05T01:36:19.447Z,66.30
2022-11-05T01:37:24.018Z,64.75
2022-11-05T01:38:26.050Z,71.55
2022-11-05T01:39:30.750Z,96.28
2022-11-05T01:40:35.327Z,79.88
2022-11-05T01:41:37.415Z,71.32
2022-11-05T01:42:42.158Z,84.22
2022-11-05T01:43:49.499Z,91.07
2022-11-05T01:45:00.945Z,96.20
2022-11-05T01:46:05.822Z,93.55
2022-11-05T01:47:14.492Z,82.38
2022-11-05T01:48:23.419Z,73.05
2022-11-05T01:49:31.859Z,66.53
2022-11-05T01:50:47.340Z,104.20
2022-11-05T01:51:49.671Z,82.07
2022-11-05T01:52:59.860Z,66.93
2022-11-05T01:54:07.916Z,74.03
2022-11-05T01:55:11.359Z,61.03
2022-11-05T01:56:19.145Z,70.65
2022-11-05T01:57:21.527Z,83.53
2022-11-05T01:58:31.623Z,78.38
2022-11-05T01:59:37.986Z,132.45
2022-11-05T02:00:43.950Z,67.70
2022-11-05T02:01:48.955Z,71.88
2022-11-05T02:02:53.775Z,138.02
2022-11-05T02:04:02.659Z,143.57
2022-11-05T02:05:08.196Z,127.05
2022-11-05T02:06:14.068Z,147.85
2022-11-05T02:07:17.390Z,91.60
2022-11-05T02:08:31.734Z,101.90
2022-11-05T02:09:39.588Z,139.88
2022-11-05T02:10:47.580Z,252.60
2022-11-05T02:11:51.178Z,314.30
2022-11-05T02:12:55.854Z,149.00
2022-11-05T02:13:58.039Z,108.68
2022-11-05T02:15:03.116Z,94.93
2022-11-05T02:16:17.858Z,208.38
2022-11-05T02:17:30.904Z,326.77
2022-11-05T02:18:47.165Z,528.70
2022-11-05T02:20:26.863Z,307.48
2022-11-05T02:21:46.571Z,338.67
2022-11-05T02:23:20.021Z,502.95
2022-11-05T02:24:57.564Z,503.40
2022-11-05T02:26:43.384Z,352.33
2022-11-05T02:28:13.290Z,95.03
2022-11-05T02:29:47.757Z,89.75
2022-11-05T02:30:59.687Z,137.10
2022-11-05T02:32:09.779Z,171.95
2022-11-05T02:33:33.941Z,96.57
2022-11-05T02:34:49.418Z,65.18
2022-11-05T02:36:10.593Z,70.60
2022-11-05T02:37:20.046Z,67.95
2022-11-05T02:38:39.183Z,67.50
2022-11-05T02:39:49.731Z,84.97
2022-11-05T02:41:04.342Z,98.22
2022-11-05T02:42:14.286Z,61.63
2022-11-05T02:43:27.737Z,72.97
2022-11-05T02:44:40.525Z,68.57
2022-11-05T02:45:55.297Z,73.68
2022-11-05T02:47:07.898Z,81.15
2022-11-05T02:48:22.604Z,89.95
2022-11-05T02:49:34.708Z,60.47
2022-11-05T02:50:48.326Z,64.53
2022-11-05T02:51:56.883Z,61.17
2022-11-05T02:53:05.033Z,74.47
2022-11-05T02:54:13.028Z,61.70
2022-11-05T02:55:25.764Z,57.15
2022-11-05T02:56:31.407Z,81.70
2022-11-05T02:57:39.121Z,71.55
2022-11-05T02:58:42.217Z,86.13
2022-11-05T02:59:46.927Z,59.95
2022-11-05T03:00:51.909Z,66.85
2022-11-05T03:01:57.385Z,91.90
2022-11-05T03:03:03.362Z,68.30
2022-11-05T03:04:11.185Z,55.53
2022-11-05T03:05:13.301Z,57.42
2022-11-05T03:06:34.655Z,76.70
2022-11-05T03:07:50.572Z,66.57
2022-11-05T03:09:26.196Z,48.17
2022-11-05T03:10:44.340Z,38.75
2022-11-05T03:11:56.539Z,47.30
2022-11-05T03:13:13.804Z,37.40
2022-11-05T03:14:23.274Z,47.50
2022-11-05T03:15:40.812Z,44.83
2022-11-05T03:16:49.034Z,45.05
2022-11-05T03:18:01.994Z,36.80
2022-11-05T03:19:13.527Z,43.28
2022-11-05T03:20:22.323Z,50.28
2022-11-05T03:21:35.380Z,70.45
2022-11-05T03:22:44.286Z,41.38
2022-11-05T03:23:52.135Z,46.78
2022-11-05T03:25:03.306Z,55.90
2022-11-05T03:26:12.789Z,38.78
2022-11-05T03:27:20.647Z,55.25
2022-11-05T03:28:27.894Z,43.65
2022-11-05T03:29:37.520Z,40.17
2022-11-05T03:30:42.621Z,40.50
2022-11-05T03:31:50.431Z,43.85
2022-11-05T03:32:57.850Z,64.75
2022-11-05T03:34:04.065Z,35.55
2022-11-05T03:35:13.415Z,40.15
2022-11-05T03:36:24.539Z,39.88
2022-11-05T03:37:30.111Z,39.47
2022-11-05T03:38:39.600Z,38.20
2022-11-05T03:39:44.762Z,46.95
2022-11-05T03:40:52.404Z,45.83
2022-11-05T03:41:56.118Z,41.35
2022-11-05T03:43:02.251Z,43.45
2022-11-05T03:44:06.835Z,56.42
2022-11-05T03:45:16.251Z,52.75
2022-11-05T03:46:23.473Z,40.58
2022-11-05T03:47:43.756Z,42.65
2022-11-05T03:48:53.201Z,33.85
2022-11-05T03:50:04.920Z,48.55
2022-11-05T03:53:29.010Z,45.17
2022-11-05T03:54:31.148Z,36.17
2022-11-05T03:55:41.292Z,59.45
2022-11-05T03:56:51.417Z,29.58
2022-11-05T03:57:58.621Z,56.55
2022-11-05T03:59:02.828Z,32.70
2022-11-05T04:00:11.708Z,47.65
2022-11-05T04:01:14.033Z,40.65
2022-11-05T04:02:21.409Z,35.83
2022-11-05T04:03:23.455Z,32.17
2022-11-05T04:04:28.138Z,30.33
2022-11-05T04:05:30.712Z,38.63
2022-11-05T04:06:50.830Z,27.58
2022-11-05T04:08:13.051Z,32.58
2022-11-05T04:09:31.273Z,62.30
2022-11-05T04:11:00.108Z,57.40
2022-11-05T04:12:17.196Z,43.60
2022-11-05T04:13:27.983Z,46.92
2022-11-05T04:14:31.109Z,56.80
2022-11-05T04:15:55.971Z,52.00
2022-11-05T04:17:07.108Z,49.53
2022-11-05T04:18:09.138Z,37.75
2022-11-05T04:19:11.210Z,32.03
2022-11-05T04:20:28.489Z,35.45
2022-11-05T04:21:45.587Z,26.60
2022-11-05T04:23:14.021Z,46.67
2022-11-05T04:24:18.660Z,37.35
2022-11-05T04:25:22.111Z,47.35
2022-11-05T04:26:26.713Z,37.92
2022-11-05T04:27:28.845Z,42.90
2022-11-05T04:28:45.717Z,41.03
2022-11-05T04:30:02.859Z,46.80
2022-11-05T04:31:07.819Z,23.90
2022-11-05T04:32:09.811Z,49.55
2022-11-05T04:33:16.272Z,31.58
2022-11-05T04:34:19.057Z,33.95
2022-11-05T04:35:23.664Z,35.97
2022-11-05T04:36:25.678Z,53.92
2022-11-05T04:37:30.254Z,51.00
2022-11-05T04:38:37.408Z,40.80
2022-11-05T04:39:39.406Z,36.05
2022-11-05T04:40:44.683Z,44.90
2022-11-05T04:41:48.252Z,53.20
2022-11-05T04:42:52.863Z,47.58
2022-11-05T04:43:54.864Z,41.55
2022-11-05T04:44:59.476Z,44.28
2022-11-05T04:46:01.575Z,40.53
2022-11-05T04:47:06.197Z,40.05
2022-11-05T04:48:08.421Z,46.25
2022-11-05T04:49:13.038Z,55.60
2022-11-05T04:50:15.149Z,40.58
2022-11-05T04:51:20.434Z,47.60
2022-11-05T04:52:22.395Z,49.97
2022-11-05T04:53:26.979Z,45.92
2022-11-05T04:54:31.645Z,41.60
2022-11-05T04:55:36.247Z,38.70
2022-11-05T04:56:38.219Z,69.85
2022-11-05T04:57:43.070Z,49.22
2022-11-05T04:58:45.442Z,56.20
2022-11-05T04:59:52.129Z,50.78
2022-11-05T05:00:54.237Z,35.35
2022-11-05T05:01:59.163Z,44.47
2022-11-05T05:03:01.714Z,67.35
2022-11-05T05:04:06.513Z,42.55
2022-11-05T05:05:08.900Z,51.47
2022-11-05T05:06:14.118Z,55.83
2022-11-05T05:07:16.104Z,47.30
2022-11-05T05:08:20.965Z,48.00
2022-11-05T05:09:22.991Z,56.67
2022-11-05T05:10:30.284Z,51.35
2022-11-05T05:11:32.341Z,67.93
2022-11-05T05:12:37.449Z,58.17
2022-11-05T05:13:39.542Z,61.80
2022-11-05T05:14:44.320Z,50.33
2022-11-05T05:15:46.306Z,58.88
2022-11-05T05:16:50.880Z,64.95
2022-11-05T05:17:56.173Z,47.40
2022-11-05T05:18:58.203Z,55.30
2022-11-05T05:20:15.264Z,57.45
2022-11-05T05:21:33.619Z,43.45
2022-11-05T05:22:38.417Z,42.10
2022-11-05T05:23:40.500Z,46.40
2022-11-05T05:24:49.927Z,44.42
2022-11-05T05:25:59.466Z,48.17
2022-11-05T05:27:04.153Z,63.78
2022-11-05T05:28:06.164Z,72.93
2022-11-05T05:29:11.720Z,52.33
2022-11-05T05:30:14.011Z,67.60
2022-11-05T05:31:18.573Z,63.85
2022-11-05T05:32:20.580Z,50.17
2022-11-05T05:33:25.208Z,56.90
2022-11-05T05:34:27.197Z,62.88
2022-11-05T05:35:31.752Z,60.22
2022-11-05T05:36:34.048Z,61.28
2022-11-05T05:37:38.687Z,60.95
2022-11-05T05:38:40.796Z,71.60
2022-11-05T05:39:46.315Z,65.20
2022-11-05T05:40:49.674Z,81.15
2022-11-05T05:41:56.867Z,61.83
2022-11-05T05:42:59.036Z,59.28
2022-11-05T05:44:03.838Z,55.92
2022-11-05T05:45:07.068Z,66.72
2022-11-05T05:46:14.205Z,59.05
2022-11-05T05:47:16.196Z,57.33
2022-11-05T05:48:20.913Z,60.45
2022-11-05T05:49:22.867Z,51.25
2022-11-05T05:50:27.477Z,52.55
2022-11-05T05:51:29.495Z,53.63
2022-11-05T05:52:34.841Z,81.75
2022-11-05T05:53:37.502Z,55.03
2022-11-05T05:54:43.093Z,54.88
2022-11-05T05:55:45.266Z,62.58
2022-11-05T05:56:49.856Z,58.35
2022-11-05T05:57:54.688Z,73.50
2022-11-05T05:58:59.399Z,56.90
2022-11-05T06:00:02.030Z,54.63
2022-11-05T06:01:09.599Z,51.63
2022-11-05T06:02:13.549Z,53.40
2022-11-05T06:03:18.302Z,60.45
2022-11-05T06:04:23.429Z,52.60
2022-11-05T06:05:25.481Z,51.38
2022-11-05T06:06:30.211Z,56.10
2022-11-05T06:07:36.982Z,54.20
2022-11-05T06:08:42.659Z,55.78
2022-11-05T06:09:44.679Z,50.03
2022-11-05T06:10:53.468Z,51.50
2022-11-05T06:11:55.543Z,47.58
2022-11-05T06:13:04.743Z,53.28
2022-11-05T06:14:07.013Z,49.78
2022-11-05T06:15:12.519Z,58.05
2022-11-05T06:16:14.578Z,58.65
2022-11-05T06:17:19.181Z,54.13
2022-11-05T06:18:21.187Z,54.17
2022-11-05T06:19:25.934Z,51.35
2022-11-05T06:20:27.892Z,53.45
2022-11-05T06:21:32.422Z,48.67
2022-11-05T06:22:34.432Z,52.45
2022-11-05T06:23:41.079Z,51.03
2022-11-05T06:24:43.118Z,51.40
2022-11-05T06:25:47.768Z,45.33
2022-11-05T06:26:49.818Z,54.03
2022-11-05T06:27:54.463Z,49.80
2022-11-05T06:29:01.667Z,49.60
2022-11-05T06:30:04.522Z,57.58
2022-11-05T06:31:09.286Z,79.97
2022-11-05T06:32:11.297Z,88.35
2022-11-05T06:33:15.949Z,58.22
2022-11-05T06:34:17.939Z,88.15
2022-11-05T06:35:22.567Z,51.20
2022-11-05T06:36:24.576Z,57.30
2022-11-05T06:37:29.155Z,54.88
2022-11-05T06:38:33.500Z,62.72
2022-11-05T06:39:38.116Z,55.53
2022-11-05T06:40:40.241Z,64.03
2022-11-05T06:42:12.055Z,63.10
2022-11-05T06:43:10.903Z,55.13
2022-11-05T06:44:15.684Z,59.20
2022-11-05T06:45:20.249Z,60.05
2022-11-05T06:46:22.236Z,54.45
2022-11-05T06:47:27.057Z,58.63
2022-11-05T06:48:29.671Z,59.80
2022-11-05T06:49:34.311Z,61.58
2022-11-05T06:50:36.342Z,68.18
2022-11-05T06:51:40.932Z,63.67
2022-11-05T06:52:42.945Z,55.33
2022-11-05T06:53:47.608Z,54.45
2022-11-05T06:54:49.648Z,61.42
2022-11-05T06:55:54.259Z,44.40
2022-11-05T06:56:56.269Z,46.65
2022-11-05T06:58:00.872Z,49.95
2022-11-05T06:59:03.021Z,65.28
2022-11-05T07:00:12.036Z,58.75
2022-11-05T07:01:16.839Z,69.38
2022-11-05T07:02:19.031Z,50.17
2022-11-05T07:03:23.740Z,50.42
2022-11-05T07:04:25.742Z,51.63
2022-11-05T07:05:30.342Z,57.97
2022-11-05T07:06:37.141Z,50.70
2022-11-05T07:07:39.663Z,61.95
2022-11-05T07:08:44.304Z,52.78
2022-11-05T07:09:46.314Z,62.25
2022-11-05T07:10:51.377Z,57.97
2022-11-05T07:11:53.462Z,50.65
2022-11-05T07:12:59.709Z,61.35
2022-11-05T07:14:04.492Z,50.30
2022-11-05T07:15:14.109Z,51.78
2022-11-05T07:16:16.121Z,52.60
2022-11-05T07:17:21.184Z,39.63
2022-11-05T07:18:23.938Z,52.38
2022-11-05T07:19:28.648Z,39.55
2022-11-05T07:20:34.182Z,39.45
2022-11-05T07:21:39.171Z,49.85
2022-11-05T07:22:41.348Z,50.88
2022-11-05T07:23:45.972Z,51.80
2022-11-05T07:24:49.526Z,60.25
2022-11-05T07:25:54.344Z,45.72
2022-11-05T07:26:56.412Z,47.65
2022-11-05T07:28:01.745Z,57.40
2022-11-05T07:29:03.862Z,49.90
2022-11-05T07:30:13.114Z,63.60
2022-11-05T07:31:15.160Z,56.38
2022-11-05T07:32:19.929Z,62.25
2022-11-05T07:33:22.229Z,54.97
2022-11-05T07:34:26.898Z,65.15
2022-11-05T07:35:29.114Z,60.47
2022-11-05T07:36:33.959Z,61.65
2022-11-05T07:37:42.978Z,77.32
2022-11-05T07:38:47.584Z,72.95
2022-11-05T07:39:49.627Z,81.18
2022-11-05T07:40:54.636Z,65.35
2022-11-05T07:41:57.859Z,61.88
2022-11-05T07:43:04.176Z,98.55
2022-11-05T07:44:06.423Z,69.05
2022-11-05T07:45:14.610Z,68.55
2022-11-05T07:46:16.662Z,66.63
2022-11-05T07:47:21.317Z,62.20
2022-11-05T07:48:25.930Z,87.70
2022-11-05T07:49:28.003Z,77.13
2022-11-05T07:50:34.640Z,77.40
2022-11-05T07:51:36.709Z,69.15
2022-11-05T07:52:41.508Z,54.28
2022-11-05T07:53:45.506Z,84.72
2022-11-05T07:54:50.322Z,61.35
2022-11-05T07:55:57.268Z,75.50
2022-11-05T07:56:59.270Z,65.70
2022-11-05T07:58:03.923Z,60.00
2022-11-05T07:59:06.223Z,65.72
2022-11-05T08:00:18.268Z,70.03
2022-11-05T08:01:20.410Z,56.03
2022-11-05T08:02:25.468Z,63.92
2022-11-05T08:03:27.799Z,80.72
2022-11-05T08:04:32.485Z,56.40
2022-11-05T08:05:39.336Z,66.20
2022-11-05T08:06:41.371Z,59.83
2022-11-05T08:07:45.971Z,57.13
2022-11-05T08:08:48.076Z,73.38
2022-11-05T08:09:52.706Z,48.50
2022-11-05T08:10:57.341Z,66.35
2022-11-05T08:12:02.839Z,71.55
2022-11-05T08:13:09.033Z,65.18
2022-11-05T08:14:11.382Z,68.03
2022-11-05T08:15:18.808Z,55.83
2022-11-05T08:16:20.858Z,63.78
2022-11-05T08:17:25.692Z,76.20
2022-11-05T08:18:31.791Z,54.22
2022-11-05T08:19:36.587Z,80.70
2022-11-05T08:20:38.922Z,63.72
2022-11-05T08:21:43.715Z,58.40
2022-11-05T08:22:49.167Z,60.90
2022-11-05T08:23:51.249Z,75.80
2022-11-05T08:24:56.011Z,62.75
2022-11-05T08:25:58.729Z,53.85
2022-11-05T08:27:03.458Z,56.72
2022-11-05T08:28:08.174Z,65.80
2022-11-05T08:29:13.104Z,52.08
2022-11-05T08:30:17.921Z,78.68
2022-11-05T08:31:22.522Z,92.30
2022-11-05T08:32:24.595Z,56.17
2022-11-05T08:33:31.458Z,85.25
2022-11-05T08:34:33.727Z,74.72
2022-11-05T08:35:40.287Z,54.53
2022-11-05T08:36:46.888Z,79.80
2022-11-05T08:37:48.971Z,55.28
2022-11-05T08:38:54.607Z,48.10
2022-11-05T08:39:59.188Z,66.07
2022-11-05T08:41:01.284Z,54.78
2022-11-05T08:42:06.065Z,48.08
2022-11-05T08:43:10.186Z,47.88
2022-11-05T08:44:15.115Z,48.15
2022-11-05T08:45:19.839Z,74.45
2022-11-05T08:46:24.575Z,46.58
2022-11-05T08:47:26.617Z,46.88
2022-11-05T08:48:31.506Z,59.95
2022-11-05T08:49:36.153Z,49.80
2022-11-05T08:50:39.117Z,50.35
2022-11-05T08:51:43.738Z,51.83
2022-11-05T08:52:45.764Z,52.60
2022-11-05T08:53:50.401Z,52.35
2022-11-05T08:54:52.423Z,48.53
2022-11-05T08:56:01.220Z,65.00
2022-11-05T08:57:05.922Z,63.88
2022-11-05T08:58:12.589Z,51.13
2022-11-05T08:59:17.414Z,56.67
2022-11-05T09:00:22.195Z,49.28
2022-11-05T09:01:26.991Z,51.42
2022-11-05T09:02:29.211Z,63.58
2022-11-05T09:03:34.016Z,45.85
2022-11-05T09:04:41.602Z,53.35
2022-11-05T09:05:43.830Z,62.03
2022-11-05T09:06:48.603Z,69.22
2022-11-05T09:07:53.155Z,43.97
2022-11-05T09:09:01.388Z,45.10
2022-11-05T09:10:04.097Z,59.78
2022-11-05T09:11:09.142Z,59.15
2022-11-05T09:12:14.214Z,106.15
2022-11-05T09:13:19.904Z,81.38
2022-11-05T09:14:27.158Z,59.55
2022-11-05T09:15:32.288Z,56.63
2022-11-05T09:16:37.077Z,62.08
2022-11-05T09:17:40.112Z,63.22
2022-11-05T09:18:44.782Z,76.25
2022-11-05T09:19:47.375Z,62.05
2022-11-05T09:20:52.154Z,57.47
2022-11-05T09:21:59.411Z,65.40
2022-11-05T09:23:04.136Z,58.00
2022-11-05T09:24:09.320Z,44.80
2022-11-05T09:25:11.672Z,39.70
2022-11-05T09:26:16.951Z,37.78
2022-11-05T09:27:19.197Z,49.85
2022-11-05T09:28:25.619Z,32.20
2022-11-05T09:29:27.809Z,38.60
2022-11-05T09:30:35.050Z,49.60
2022-11-05T09:31:39.690Z,36.88
2022-11-05T09:32:42.141Z,39.60
2022-11-05T09:33:46.794Z,61.80
2022-11-05T09:34:50.123Z,39.95
2022-11-05T09:35:55.722Z,31.80
2022-11-05T09:36:58.350Z,29.40
2022-11-05T09:38:03.356Z,29.90
2022-11-05T09:39:05.645Z,41.15
2022-11-05T09:40:11.038Z,34.03
2022-11-05T09:41:23.886Z,37.83
2022-11-05T09:42:30.374Z,40.83
2022-11-05T09:43:39.922Z,25.20
2022-11-05T09:44:46.160Z,35.65
2022-11-05T09:45:59.442Z,33.97
2022-11-05T09:47:05.758Z,42.88
2022-11-05T09:48:17.308Z,43.58
2022-11-05T09:49:29.153Z,39.08
2022-11-05T09:50:34.882Z,38.10
2022-11-05T09:51:40.130Z,37.70
2022-11-05T09:52:42.138Z,28.58
2022-11-05T09:53:49.055Z,36.10
2022-11-05T09:54:51.643Z,35.10
2022-11-05T09:55:59.109Z,46.90
2022-11-05T09:57:03.607Z,25.83
2022-11-05T09:58:18.061Z,41.15
2022-11-05T09:59:23.375Z,28.15
2022-11-05T10:00:30.616Z,34.95
2022-11-05T10:01:38.060Z,31.60
2022-11-05T10:02:53.263Z,39.63
2022-11-05T10:04:02.259Z,42.10
2022-11-05T10:05:10.298Z,42.28
2022-11-05T10:06:21.618Z,27.85
2022-11-05T10:07:29.806Z,21.52
2022-11-05T10:08:35.042Z,30.67
2022-11-05T10:09:46.462Z,35.88
2022-11-05T10:10:54.080Z,18.85
2022-11-05T10:12:16.671Z,22.60
2022-11-05T10:13:26.085Z,68.18
2022-11-05T10:14:34.753Z,57.72
2022-11-05T10:15:43.056Z,34.53
2022-11-05T10:16:56.513Z,34.13
2022-11-05T10:18:03.717Z,17.90
2022-11-05T10:19:12.892Z,31.55
2022-11-05T10:20:23.674Z,26.23
2022-11-05T10:21:59.522Z,21.25
2022-11-05T10:22:59.537Z,36.95
2022-11-05T10:24:08.594Z,37.80
2022-11-05T10:25:21.362Z,34.50
2022-11-05T10:26:30.109Z,31.88
2022-11-05T10:27:37.019Z,319.48
2022-11-05T10:28:42.209Z,153.68
2022-11-05T10:29:45.013Z,698.10
2022-11-05T10:30:53.053Z,706.28
2022-11-05T10:32:03.066Z,825.25
2022-11-05T10:33:07.470Z,903.75
2022-11-05T10:34:17.983Z,876.30
2022-11-05T10:35:22.740Z,455.58
2022-11-05T10:36:32.153Z,716.63
2022-11-05T10:37:39.562Z,554.40
2022-11-05T10:38:45.584Z,539.53
2022-11-05T10:39:51.679Z,583.10
2022-11-05T10:41:07.042Z,844.78
2022-11-05T10:42:37.142Z,380.83
2022-11-05T10:43:45.287Z,491.08
2022-11-05T10:44:56.147Z,370.42
2022-11-05T10:46:06.446Z,59.28
2022-11-05T10:47:30.125Z,53.40
2022-11-05T10:48:52.512Z,490.98
2022-11-05T10:49:58.848Z,82.53
2022-11-05T10:51:04.653Z,418.73
2022-11-05T10:52:21.930Z,381.10
2022-11-05T10:53:35.134Z,585.92
2022-11-05T10:54:40.048Z,316.05
2022-11-05T10:55:47.368Z,199.63
2022-11-05T10:56:52.111Z,308.67
2022-11-05T10:57:54.643Z,464.15
2022-11-05T10:59:06.691Z,100.43
2022-11-05T11:00:30.687Z,603.00
2022-11-05T11:01:33.576Z,672.30
2022-11-05T11:02:41.124Z,839.05
2022-11-05T11:03:49.346Z,889.40
2022-11-05T11:04:53.490Z,367.88
2022-11-05T11:06:04.356Z,262.65
2022-11-05T11:07:22.302Z,364.33
2022-11-05T11:08:25.525Z,387.20
2022-11-05T11:09:34.280Z,494.90
2022-11-05T11:10:40.839Z,230.27
2022-11-05T11:11:46.076Z,293.65
2022-11-05T11:12:49.867Z,336.08
2022-11-05T11:14:02.932Z,420.20
2022-11-05T11:15:17.466Z,478.05
2022-11-05T11:16:22.526Z,555.90
2022-11-05T11:17:32.110Z,662.60
2022-11-05T11:18:40.404Z,703.05
2022-11-05T11:19:45.381Z,770.85
2022-11-05T11:20:47.413Z,800.60
2022-11-05T11:22:19.505Z,810.60
2022-11-05T11:23:24.239Z,799.50
2022-11-05T11:24:32.499Z,745.38
2022-11-05T11:25:45.628Z,849.60
2022-11-05T11:26:50.259Z,855.33
2022-11-05T11:27:53.367Z,777.60
2022-11-05T11:29:02.025Z,787.08
2022-11-05T11:30:09.349Z,801.92
2022-11-05T11:31:16.246Z,586.78
2022-11-05T11:32:20.654Z,829.63
2022-11-05T11:33:29.531Z,691.22
2022-11-05T11:34:34.382Z,731.53
2022-11-05T11:35:41.449Z,669.85
2022-11-05T11:36:48.655Z,786.00
2022-11-05T11:37:57.274Z,616.97
2022-11-05T11:39:02.900Z,339.52
2022-11-05T11:40:17.958Z,864.22
2022-11-05T11:41:27.080Z,873.13
2022-11-05T11:42:37.563Z,836.70
2022-11-05T11:43:41.683Z,826.47
2022-11-05T11:44:49.433Z,847.28
2022-11-05T11:46:00.656Z,815.75
2022-11-05T11:47:15.702Z,817.10
2022-11-05T11:48:24.697Z,840.20
2022-11-05T11:49:36.706Z,807.35
2022-11-05T11:50:44.588Z,789.88
2022-11-05T11:51:49.996Z,794.05
2022-11-05T11:52:57.565Z,801.70
2022-11-05T11:54:03.535Z,792.75
2022-11-05T11:55:25.303Z,740.60
2022-11-05T11:56:32.573Z,252.57
2022-11-05T11:57:43.835Z,299.67
2022-11-05T11:58:50.547Z,679.05
2022-11-05T12:00:11.548Z,767.72
2022-11-05T12:01:27.654Z,339.63
2022-11-05T12:03:01.866Z,512.22
2022-11-05T12:04:20.844Z,708.40
2022-11-05T12:05:32.810Z,677.05
2022-11-05T12:06:44.251Z,754.00
2022-11-05T12:07:52.938Z,775.80
2022-11-05T12:09:09.921Z,372.48
2022-11-05T12:10:35.871Z,648.70
2022-11-05T12:11:46.690Z,677.80
2022-11-05T12:13:04.157Z,738.67
2022-11-05T12:14:25.507Z,743.60
2022-11-05T12:15:42.682Z,788.33
2022-11-05T12:17:03.930Z,700.63
2022-11-05T12:18:09.958Z,680.83
2022-11-05T12:19:27.649Z,701.45
2022-11-05T12:21:04.015Z,718.70
2022-11-05T12:22:20.949Z,738.53
2022-11-05T12:23:43.233Z,767.30
